Jefferson, CO (80456)

12:01 AM MDT on May 07, 2015 (GMT -0600)
Indian Mountain | | Change Station
CLOSE
Current Station
Personal Weather Station
Location: Jefferson, CO
Elevation: 9724 ft
Nearby Weather Stations

Elev 9724 ft 39.26 °N, 105.78 °W | Updated 7 minutes ago

Partly Cloudy
Partly Cloudy
33.6 °F
Feels Like 34 °F
N
0.0
Wind Variable Wind from NE

Today
High -- | Low -- °F
--% Chance of Precip.
Yesterday
High -- | Low -- °F
Precip. -- in
5:57 AM 8:02 PM
Waning Gibbous, 90% visible
Pressure 30.07 in
Visibility 10.0 miles
Clouds Clear
Windchill 34 °F
Dew Point 26 °F
Humidity 75%
Rainfall in
Snow Depth Not available.
UV 0 out of 12
Pollen 4.50 out of 12
Air Quality Not available.
Flu Activity Sporadic
METAR K4BM 070552Z AUTO 24007KT 10SM CLR 00/M02 A3007 RMK AO2

More Conditions Fewer Conditions

Pressure 30.07 in
Visibility 10.0 miles
Clouds Clear
Windchill 34 °F
Dew Point 26 °F
Humidity 75%
Rainfall in
Snow Depth Not available.
UV 0 out of 12
Pollen 4.50 out of 12
Air Quality Not available.
Flu Activity Sporadic
METAR K4BM 070552Z AUTO 24007KT 10SM CLR 00/M02 A3007 RMK AO2

More Conditions Fewer Conditions

Nowcast | as of 10:10 PM MDT on May 6, 2015

Scattered rain and snow showers will continue over the northern Colorado mountains through this evening. A few thunderstorms are also expected. Some of the showers will produce brief heavy rain and wind gusts to 40 mph. The snow level will be between 10 and 11 thousand feet with higher elevations picking up an inch or two of snow. Roads will generally be wet...but The Summit of the passes could be slushy at times.

×

10-Day Weather Forecast

Almanac

Astronomy

May. 07, 2015 Rise Set
Actual Time
Civil Twilight
Nautical Twilight
Astronomical Twilight
Moon
Length of Visible Light
Length of Day
Tomorrow will be .
, % of the Moon is Illuminated

Today's Extremes

State Highs State Lows

Community

WunderPhotos

Upload Photos

1,819,126 photos uploaded!

WunderBlogs® & News

Nearby

Air Quality

  Air Quality AQ Index Pollutant
Not available.

Snow Depth

Station Depth Elevation

Earthquake Activity

City Distance Mag. Time & Date
Minimum magnitude displayed is 2.5.

Coastal Water Temperatures

Place Temperature

Stations

Nearby Weather Stations

Station Location Temp. Windchill Dew Point Humidity Wind Precip. Elev Updated Type